Time;durP1;ratioP1;P1;durP2;ratioP2;P2;SDS_P1;SDS_P2;PMS_P1;PMS_P2;Temp;Humidity;BMP_temperature;BMP_pressure;BME280_temperature;BME280_humidity;BME280_pressure;Samples;Min_cycle;Max_cycle;Signal;HPM_P1;HPM_P2
2021/12/03 00:01:42;;;;;;;4.50;2.13;;;1.60;99.90;;;;;;4910796;29;20441;-65
2021/12/03 00:04:10;;;;;;;2.40;2.00;;;1.60;99.90;;;;;;4908636;29;20453;-63
2021/12/03 00:06:38;;;;;;;4.60;2.30;;;1.50;99.90;;;;;;4914801;29;20440;-64
2021/12/03 00:09:08;;;;;;;4.40;2.10;;;1.50;99.90;;;;;;4915046;29;20540;-65
2021/12/03 00:11:36;;;;;;;4.63;2.07;;;1.50;99.90;;;;;;4914489;29;20453;-66
2021/12/03 00:14:04;;;;;;;4.80;2.00;;;1.50;99.90;;;;;;4924417;29;20495;-66
2021/12/03 00:16:32;;;;;;;3.07;2.10;;;1.50;99.90;;;;;;4916125;29;20859;-66
2021/12/03 00:19:02;;;;;;;4.23;1.83;;;1.50;99.90;;;;;;4916308;29;21018;-66
2021/12/03 00:21:30;;;;;;;2.83;2.20;;;1.50;99.90;;;;;;4918198;29;20985;-65
2021/12/03 00:23:59;;;;;;;3.73;2.10;;;1.60;99.90;;;;;;4912363;29;20441;-66
2021/12/03 00:26:27;;;;;;;5.30;2.33;;;1.60;99.90;;;;;;4915975;29;20531;-66
2021/12/03 00:28:55;;;;;;;2.83;2.10;;;1.60;99.90;;;;;;4917202;29;20836;-65
2021/12/03 00:31:23;;;;;;;3.43;1.90;;;1.70;99.90;;;;;;4916372;29;20471;-65
2021/12/03 00:33:51;;;;;;;3.37;2.20;;;1.60;99.90;;;;;;4912056;29;20477;-65
2021/12/03 00:36:21;;;;;;;4.10;2.30;;;1.70;99.90;;;;;;4911818;29;20990;-64
2021/12/03 00:38:53;;;;;;;4.50;2.50;;;1.80;99.90;;;;;;4917589;29;20455;-65
2021/12/03 00:41:22;;;;;;;3.10;2.27;;;1.80;99.90;;;;;;4911433;29;20504;-65
2021/12/03 00:43:52;;;;;;;2.80;2.30;;;1.80;99.90;;;;;;4914529;29;20448;-66
2021/12/03 00:46:22;;;;;;;2.70;2.10;;;1.70;99.90;;;;;;4914615;29;20861;-65
2021/12/03 00:48:52;;;;;;;3.43;2.33;;;1.70;99.90;;;;;;4914445;29;20433;-64
2021/12/03 00:51:23;;;;;;;4.07;2.67;;;1.70;99.90;;;;;;4918321;29;20482;-66
2021/12/03 00:53:52;;;;;;;4.53;2.43;;;1.60;99.90;;;;;;4911820;29;20895;-67
2021/12/03 00:56:20;;;;;;;4.70;3.20;;;1.60;99.90;;;;;;4913262;29;20452;-65
2021/12/03 00:58:49;;;;;;;5.30;2.97;;;1.60;99.90;;;;;;4915015;29;20877;-65
2021/12/03 01:01:18;;;;;;;3.20;2.70;;;1.60;99.90;;;;;;4913996;29;20436;-66
2021/12/03 01:03:47;;;;;;;6.00;2.90;;;1.70;99.90;;;;;;4911997;29;20452;-66
2021/12/03 01:06:15;;;;;;;5.80;3.17;;;1.60;99.90;;;;;;4920213;29;20457;-66
2021/12/03 01:08:45;;;;;;;5.43;3.40;;;1.70;99.90;;;;;;4915120;29;20454;-66
2021/12/03 01:11:14;;;;;;;4.43;3.10;;;1.70;99.90;;;;;;4919261;29;20948;-65
2021/12/03 01:13:45;;;;;;;5.00;3.40;;;1.70;99.90;;;;;;4914914;29;20540;-66
2021/12/03 01:16:15;;;;;;;5.00;3.20;;;1.70;99.90;;;;;;4911057;29;20986;-66
2021/12/03 01:18:45;;;;;;;4.33;3.57;;;1.70;99.90;;;;;;4912868;29;20525;-66
2021/12/03 01:21:15;;;;;;;4.10;3.20;;;1.70;99.90;;;;;;4920102;29;20455;-66
2021/12/03 01:23:45;;;;;;;5.83;3.50;;;1.70;99.90;;;;;;4912965;29;21250;-66
2021/12/03 01:26:14;;;;;;;4.67;3.47;;;1.60;99.90;;;;;;4913269;29;21041;-64
2021/12/03 01:28:43;;;;;;;6.17;3.10;;;1.60;99.90;;;;;;4911035;29;20556;-64
2021/12/03 01:31:11;;;;;;;4.50;3.77;;;1.60;99.90;;;;;;4916356;29;20437;-66
2021/12/03 01:33:39;;;;;;;5.70;3.67;;;1.60;99.90;;;;;;4911124;29;20473;-66
2021/12/03 01:36:08;;;;;;;5.77;3.70;;;1.50;99.90;;;;;;4914733;29;20440;-65
2021/12/03 01:38:36;;;;;;;4.47;3.60;;;1.50;99.90;;;;;;4913507;29;20445;-67
2021/12/03 01:41:06;;;;;;;5.43;4.30;;;1.50;99.90;;;;;;4896649;29;20858;-65
2021/12/03 01:43:34;;;;;;;6.60;4.20;;;1.50;99.90;;;;;;4909428;29;20488;-65
2021/12/03 01:46:07;;;;;;;6.80;4.60;;;1.60;99.90;;;;;;4916906;29;20440;-66
2021/12/03 01:48:36;;;;;;;4.97;3.87;;;1.60;99.90;;;;;;4919607;29;20893;-65
2021/12/03 01:51:04;;;;;;;6.77;4.17;;;1.50;99.90;;;;;;4923561;29;20440;-66
2021/12/03 01:53:36;;;;;;;6.03;4.67;;;1.50;99.90;;;;;;4911439;29;20583;-66
2021/12/03 01:56:08;;;;;;;6.60;4.80;;;1.60;99.90;;;;;;4914897;29;20445;-65
2021/12/03 01:58:38;;;;;;;7.03;5.10;;;1.50;99.90;;;;;;4914533;29;20567;-66
2021/12/03 02:01:09;;;;;;;6.83;4.53;;;1.50;99.90;;;;;;4913042;29;20950;-66
2021/12/03 02:03:40;;;;;;;7.80;5.07;;;1.40;99.90;;;;;;4913589;29;20481;-65
2021/12/03 02:06:11;;;;;;;10.27;5.53;;;1.40;99.90;;;;;;4910170;29;20513;-66
2021/12/03 02:08:40;;;;;;;5.37;4.87;;;1.40;99.90;;;;;;4921547;29;20504;-66
2021/12/03 02:11:11;;;;;;;5.70;4.07;;;1.40;99.90;;;;;;4918139;29;20444;-66
2021/12/03 02:13:40;;;;;;;5.50;4.40;;;1.40;99.90;;;;;;4910066;29;20752;-64
2021/12/03 02:16:09;;;;;;;5.97;4.50;;;1.50;99.90;;;;;;4918741;29;20438;-65
2021/12/03 02:18:39;;;;;;;6.20;4.87;;;1.40;99.90;;;;;;4913022;29;20461;-64
2021/12/03 02:21:10;;;;;;;5.73;4.97;;;1.60;99.90;;;;;;4919882;29;20476;-65
2021/12/03 02:23:40;;;;;;;7.40;5.20;;;1.60;99.90;;;;;;4910123;29;20565;-65
2021/12/03 02:26:08;;;;;;;6.83;4.87;;;1.50;99.90;;;;;;4914219;29;20552;-66
2021/12/03 02:28:50;;;;;;;5.80;4.80;;;1.60;99.90;;;;;;4916060;29;20482;-65
2021/12/03 02:31:21;;;;;;;6.03;4.27;;;1.60;99.90;;;;;;4916111;29;20471;-65
2021/12/03 02:33:49;;;;;;;6.83;4.60;;;1.50;99.90;;;;;;4915290;29;21114;-66
2021/12/03 02:36:19;;;;;;;5.27;4.07;;;1.40;99.90;;;;;;4915320;29;20448;-66
2021/12/03 02:38:48;;;;;;;5.90;3.87;;;1.40;99.90;;;;;;4909839;29;21036;-66
2021/12/03 02:41:17;;;;;;;5.53;4.03;;;1.50;99.90;;;;;;4918670;29;20527;-66
2021/12/03 02:43:45;;;;;;;8.17;4.37;;;1.40;99.90;;;;;;4918055;29;20818;-66
2021/12/03 02:46:13;;;;;;;5.73;4.10;;;1.40;99.90;;;;;;4923158;29;20452;-65
2021/12/03 02:48:41;;;;;;;5.97;4.50;;;1.40;99.90;;;;;;4913423;29;20551;-65
2021/12/03 02:51:10;;;;;;;6.80;5.20;;;1.40;99.90;;;;;;4914624;29;20445;-66
2021/12/03 02:53:40;;;;;;;7.37;5.40;;;1.40;99.90;;;;;;4914350;29;20547;-65
2021/12/03 02:56:09;;;;;;;6.77;5.53;;;1.30;99.90;;;;;;4917012;29;20451;-64
2021/12/03 02:58:37;;;;;;;7.60;5.70;;;1.30;99.90;;;;;;4915552;29;20556;-64
2021/12/03 03:01:07;;;;;;;8.33;5.53;;;1.30;99.90;;;;;;4923478;29;20445;-66
2021/12/03 03:03:35;;;;;;;7.87;5.67;;;1.40;99.90;;;;;;4920020;29;20467;-65
2021/12/03 03:06:08;;;;;;;12.47;6.80;;;1.40;99.90;;;;;;4917152;29;20459;-65
2021/12/03 03:08:38;;;;;;;8.10;7.03;;;1.40;99.90;;;;;;4912425;29;20441;-66
2021/12/03 03:11:08;;;;;;;8.07;6.80;;;1.50;99.90;;;;;;4919347;29;20445;-66
2021/12/03 03:13:37;;;;;;;8.83;6.57;;;1.40;99.90;;;;;;4914667;29;20979;-66
2021/12/03 03:16:07;;;;;;;7.43;6.23;;;1.30;99.90;;;;;;4915088;29;20511;-67
2021/12/03 03:18:36;;;;;;;7.43;5.50;;;1.30;99.90;;;;;;4916972;29;20464;-65
2021/12/03 03:21:06;;;;;;;7.27;5.70;;;1.30;99.90;;;;;;4922961;29;20477;-65
2021/12/03 03:23:35;;;;;;;7.17;5.83;;;1.30;99.90;;;;;;4921510;29;20493;-66
2021/12/03 03:26:04;;;;;;;8.77;5.37;;;1.30;99.90;;;;;;4919505;29;20493;-65
2021/12/03 03:28:34;;;;;;;5.90;5.13;;;1.40;99.90;;;;;;4915369;29;20440;-65
2021/12/03 03:31:02;;;;;;;6.67;4.90;;;1.30;99.90;;;;;;4919190;29;20557;-66
2021/12/03 03:33:31;;;;;;;7.03;4.93;;;1.30;99.90;;;;;;4915064;29;20460;-66
2021/12/03 03:36:00;;;;;;;8.17;4.50;;;1.30;99.90;;;;;;4906838;29;21089;-66
2021/12/03 03:38:28;;;;;;;8.10;4.83;;;1.30;99.90;;;;;;4917556;29;20960;-65
2021/12/03 03:40:57;;;;;;;5.47;4.50;;;1.40;99.90;;;;;;4911761;29;20486;-65
2021/12/03 03:43:25;;;;;;;7.90;4.83;;;1.30;99.90;;;;;;4914572;29;20513;-66
2021/12/03 03:45:55;;;;;;;6.80;4.80;;;1.50;99.90;;;;;;4915311;29;20477;-66
2021/12/03 03:48:24;;;;;;;5.90;4.77;;;1.40;99.90;;;;;;4918206;29;20445;-66
2021/12/03 03:50:53;;;;;;;6.50;4.23;;;1.40;99.90;;;;;;4911733;29;20441;-66
2021/12/03 03:53:21;;;;;;;6.20;4.67;;;1.30;99.90;;;;;;4918041;29;20825;-65
2021/12/03 03:55:49;;;;;;;7.40;4.70;;;1.30;99.90;;;;;;4914538;29;21092;-65
2021/12/03 03:58:17;;;;;;;6.03;4.40;;;1.30;99.90;;;;;;4915849;29;20453;-66
2021/12/03 04:00:47;;;;;;;5.37;4.33;;;1.30;99.90;;;;;;4912297;29;21182;-66
2021/12/03 04:03:17;;;;;;;8.97;4.50;;;1.20;99.90;;;;;;4914484;29;20458;-66
2021/12/03 04:05:45;;;;;;;6.07;4.40;;;1.20;99.90;;;;;;4915832;29;20453;-67
2021/12/03 04:08:13;;;;;;;8.43;4.87;;;1.20;99.90;;;;;;4917701;29;20546;-66
2021/12/03 04:10:42;;;;;;;6.20;4.60;;;1.20;99.90;;;;;;4916235;29;20433;-66
2021/12/03 04:13:10;;;;;;;8.03;4.50;;;1.20;99.90;;;;;;4911142;29;21072;-66
2021/12/03 04:15:38;;;;;;;5.53;4.20;;;1.20;99.90;;;;;;4923500;29;20484;-66
2021/12/03 04:18:06;;;;;;;5.67;4.80;;;1.20;99.90;;;;;;4918347;29;20815;-66
2021/12/03 04:20:36;;;;;;;7.43;5.03;;;1.20;99.90;;;;;;4916439;29;20482;-66
2021/12/03 04:23:05;;;;;;;5.97;4.40;;;1.20;99.90;;;;;;4912035;29;20862;-66
2021/12/03 04:25:34;;;;;;;8.20;5.10;;;1.20;99.90;;;;;;4922956;29;20508;-66
2021/12/03 04:28:03;;;;;;;7.53;4.90;;;1.20;99.90;;;;;;4919321;29;20551;-66
2021/12/03 04:30:32;;;;;;;5.57;4.27;;;1.20;99.90;;;;;;4916360;29;20492;-65
2021/12/03 04:33:04;;;;;;;5.20;4.60;;;1.20;99.90;;;;;;4922023;29;20447;-65
2021/12/03 04:35:32;;;;;;;6.63;5.43;;;1.30;99.90;;;;;;4913765;29;21127;-66
2021/12/03 04:38:02;;;;;;;6.93;5.03;;;1.30;99.90;;;;;;4910607;29;20990;-66
2021/12/03 04:40:31;;;;;;;8.33;5.30;;;1.30;99.90;;;;;;4920022;29;20531;-66
2021/12/03 04:42:59;;;;;;;6.73;5.33;;;1.30;99.90;;;;;;4915575;29;20978;-65
2021/12/03 04:45:29;;;;;;;7.63;5.87;;;1.30;99.90;;;;;;4913847;29;20528;-64
2021/12/03 04:47:59;;;;;;;6.63;5.73;;;1.30;99.90;;;;;;4914557;29;20442;-66
2021/12/03 04:50:37;;;;;;;6.70;6.00;;;1.40;99.90;;;;;;4910428;29;20487;-65
2021/12/03 04:53:08;;;;;;;6.47;5.67;;;1.30;99.90;;;;;;4915860;29;20449;-66
2021/12/03 04:55:37;;;;;;;9.37;5.60;;;1.30;99.90;;;;;;4914530;29;20491;-66
2021/12/03 04:58:05;;;;;;;9.87;5.87;;;1.30;99.90;;;;;;4914799;29;20449;-66
2021/12/03 05:00:37;;;;;;;5.33;4.80;;;1.30;99.90;;;;;;4911874;29;20458;-66
2021/12/03 05:03:06;;;;;;;7.00;5.73;;;1.40;99.90;;;;;;4918926;29;20516;-66
2021/12/03 05:05:35;;;;;;;10.77;6.27;;;1.40;99.90;;;;;;4910390;29;20447;-65
2021/12/03 05:08:09;;;;;;;9.30;6.83;;;1.40;99.90;;;;;;4910077;29;20496;-65
2021/12/03 05:10:39;;;;;;;7.67;6.27;;;1.50;99.90;;;;;;4908382;29;20457;-65
2021/12/03 05:13:09;;;;;;;8.63;6.33;;;1.30;99.90;;;;;;4911341;29;20460;-65
2021/12/03 05:15:39;;;;;;;8.30;5.80;;;1.30;99.90;;;;;;4909225;29;20555;-66
2021/12/03 05:18:10;;;;;;;9.27;6.50;;;1.40;99.90;;;;;;4915878;29;20457;-65
2021/12/03 05:20:38;;;;;;;8.80;6.57;;;1.40;99.90;;;;;;4915016;29;20496;-65
2021/12/03 05:23:08;;;;;;;9.20;6.73;;;1.50;99.90;;;;;;4911996;29;20444;-66
2021/12/03 05:25:37;;;;;;;11.43;6.10;;;1.40;99.90;;;;;;4913578;29;20471;-64
2021/12/03 05:28:07;;;;;;;6.23;5.63;;;1.40;99.90;;;;;;4916099;29;20492;-66
2021/12/03 05:30:36;;;;;;;7.43;5.93;;;1.40;99.90;;;;;;4913383;29;20794;-65
2021/12/03 05:33:05;;;;;;;10.23;6.50;;;1.40;99.90;;;;;;4912415;29;20509;-66
2021/12/03 05:35:33;;;;;;;7.63;6.43;;;1.40;99.90;;;;;;4916747;29;20481;-65
2021/12/03 05:38:04;;;;;;;7.13;6.40;;;1.40;99.90;;;;;;4909257;29;20447;-66
2021/12/03 05:40:33;;;;;;;10.07;7.20;;;1.40;99.90;;;;;;4918912;29;20442;-66
2021/12/03 05:43:01;;;;;;;6.40;5.70;;;1.40;99.90;;;;;;4911976;29;20468;-65
2021/12/03 05:45:32;;;;;;;7.87;6.20;;;1.40;99.90;;;;;;4913732;29;20453;-66
2021/12/03 05:48:01;;;;;;;10.60;6.70;;;1.30;99.90;;;;;;4908834;29;20513;-65
2021/12/03 05:50:29;;;;;;;11.03;7.13;;;1.30;99.90;;;;;;4917869;29;20453;-66
2021/12/03 05:52:58;;;;;;;8.70;6.40;;;1.30;99.90;;;;;;4916411;29;20638;-65
2021/12/03 05:55:26;;;;;;;7.73;6.80;;;1.30;99.90;;;;;;4910931;29;20462;-65
2021/12/03 05:57:57;;;;;;;7.47;6.63;;;1.40;99.90;;;;;;4916850;29;20484;-65
2021/12/03 06:00:28;;;;;;;9.40;6.13;;;1.30;99.90;;;;;;4912891;29;20459;-66
2021/12/03 06:02:57;;;;;;;8.77;6.03;;;1.30;99.90;;;;;;4914399;29;21385;-66
2021/12/03 06:05:27;;;;;;;8.33;6.07;;;1.40;99.90;;;;;;4913383;29;20597;-66
2021/12/03 06:07:55;;;;;;;11.37;6.63;;;1.30;99.90;;;;;;4916820;29;20465;-66
2021/12/03 06:10:26;;;;;;;7.17;6.37;;;1.50;99.90;;;;;;4918071;29;20452;-65
2021/12/03 06:12:56;;;;;;;10.47;6.53;;;1.50;99.90;;;;;;4919771;29;20496;-66
2021/12/03 06:15:24;;;;;;;12.20;7.07;;;1.40;99.90;;;;;;4919121;29;20456;-65
2021/12/03 06:17:53;;;;;;;8.87;7.43;;;1.30;99.90;;;;;;4910525;29;20526;-64
2021/12/03 06:20:21;;;;;;;10.33;7.57;;;1.30;99.90;;;;;;4915064;29;20462;-66
2021/12/03 06:22:49;;;;;;;8.87;7.27;;;1.20;99.90;;;;;;4920444;29;20542;-66
2021/12/03 06:25:19;;;;;;;9.13;6.47;;;1.30;99.90;;;;;;4912076;29;20587;-66
2021/12/03 06:27:48;;;;;;;8.53;7.67;;;1.30;99.90;;;;;;4917983;29;20519;-65
2021/12/03 06:30:21;;;;;;;11.13;6.93;;;1.30;99.90;;;;;;4920857;29;20475;-66
2021/12/03 06:32:50;;;;;;;7.83;7.03;;;1.30;99.90;;;;;;4913966;29;20511;-66
2021/12/03 06:35:19;;;;;;;10.97;6.97;;;1.30;99.90;;;;;;4912822;29;20578;-66
2021/12/03 06:37:48;;;;;;;9.70;6.70;;;1.30;99.90;;;;;;4912125;29;20516;-66
2021/12/03 06:40:18;;;;;;;10.00;7.00;;;1.30;99.90;;;;;;4909779;29;21301;-66
2021/12/03 06:42:46;;;;;;;10.03;6.97;;;1.30;99.90;;;;;;4915688;29;20494;-66
2021/12/03 06:45:17;;;;;;;9.43;7.73;;;1.30;99.90;;;;;;4909691;29;20480;-64
2021/12/03 06:47:45;;;;;;;9.37;7.77;;;1.30;99.90;;;;;;4911002;29;20481;-66
2021/12/03 06:50:19;;;;;;;13.13;8.23;;;1.40;99.90;;;;;;4921602;29;20475;-66
2021/12/03 06:52:52;;;;;;;9.00;7.37;;;1.40;99.90;;;;;;4909920;29;20488;-66
2021/12/03 06:55:21;;;;;;;12.80;8.93;;;1.40;99.90;;;;;;4912677;29;20536;-66
2021/12/03 06:57:49;;;;;;;12.63;8.60;;;1.40;99.90;;;;;;4915607;29;20477;-66
2021/12/03 07:00:19;;;;;;;10.93;7.90;;;1.30;99.90;;;;;;4911125;29;20512;-66
2021/12/03 07:02:47;;;;;;;9.60;8.57;;;1.30;99.90;;;;;;4916823;29;20481;-66
2021/12/03 07:05:16;;;;;;;10.27;8.37;;;1.30;99.90;;;;;;4912359;29;20522;-65
2021/12/03 07:07:45;;;;;;;10.43;9.37;;;1.30;99.90;;;;;;4917498;29;20477;-64
2021/12/03 07:10:13;;;;;;;12.90;9.33;;;1.30;99.90;;;;;;4920335;29;20602;-65
2021/12/03 07:12:41;;;;;;;14.13;9.17;;;1.30;99.90;;;;;;4909898;29;21047;-66
2021/12/03 07:15:10;;;;;;;13.60;8.77;;;1.30;99.90;;;;;;4899836;29;20505;-65
2021/12/03 07:17:40;;;;;;;12.10;9.87;;;1.30;99.90;;;;;;4879373;29;1113189;-65
2021/12/03 07:20:09;;;;;;;11.77;9.83;;;1.30;99.90;;;;;;4918164;29;20890;-67
2021/12/03 07:22:38;;;;;;;25.43;9.53;;;1.30;99.90;;;;;;4916526;29;20479;-65
2021/12/03 07:25:07;;;;;;;12.23;9.10;;;1.30;99.90;;;;;;4909166;29;20509;-66
2021/12/03 07:27:35;;;;;;;12.27;9.00;;;1.30;99.90;;;;;;4918328;29;20491;-65
2021/12/03 07:30:06;;;;;;;9.53;8.53;;;1.30;99.90;;;;;;4921470;29;20531;-66
2021/12/03 07:32:34;;;;;;;11.13;9.00;;;1.30;99.90;;;;;;4912479;29;20524;-65
2021/12/03 07:35:05;;;;;;;13.17;9.67;;;1.30;99.90;;;;;;4916544;29;20994;-66
2021/12/03 07:37:33;;;;;;;10.93;9.27;;;1.30;99.90;;;;;;4913464;29;20908;-66
2021/12/03 07:40:02;;;;;;;11.57;9.83;;;1.30;99.90;;;;;;4913172;29;20504;-66
2021/12/03 07:42:30;;;;;;;10.53;9.53;;;1.30;99.90;;;;;;4911946;29;21018;-65
2021/12/03 07:44:59;;;;;;;13.50;8.73;;;1.30;99.90;;;;;;4902096;29;20493;-65
2021/12/03 07:47:27;;;;;;;16.87;10.90;;;1.40;99.90;;;;;;4913405;29;20922;-66
2021/12/03 07:49:55;;;;;;;12.00;9.67;;;1.70;99.90;;;;;;4911785;29;20481;-66
2021/12/03 07:52:25;;;;;;;13.70;9.90;;;1.50;99.90;;;;;;4919297;29;20566;-66
2021/12/03 07:54:53;;;;;;;11.83;10.00;;;1.50;99.90;;;;;;4908954;29;20496;-66
2021/12/03 07:57:21;;;;;;;12.87;10.10;;;1.40;99.90;;;;;;4910427;29;20790;-66
2021/12/03 07:59:51;;;;;;;14.73;11.27;;;1.40;99.90;;;;;;4919660;29;20479;-66
2021/12/03 08:02:19;;;;;;;12.97;10.37;;;1.40;99.90;;;;;;4919145;29;20639;-65
2021/12/03 08:04:48;;;;;;;12.07;9.93;;;1.40;99.90;;;;;;4916182;29;20495;-66
2021/12/03 08:07:16;;;;;;;14.47;11.10;;;1.50;99.90;;;;;;4918172;29;20519;-66
2021/12/03 08:09:45;;;;;;;13.93;11.50;;;1.40;99.90;;;;;;4911471;29;20516;-65
2021/12/03 08:12:13;;;;;;;15.40;12.07;;;1.40;99.90;;;;;;4920835;29;20560;-66
2021/12/03 08:14:42;;;;;;;16.10;12.00;;;1.50;99.90;;;;;;4916252;29;20508;-65
2021/12/03 08:17:10;;;;;;;13.17;11.47;;;1.50;99.90;;;;;;4911207;29;20571;-66
2021/12/03 08:19:38;;;;;;;14.07;11.63;;;1.50;99.90;;;;;;4915871;29;20567;-66
2021/12/03 08:22:07;;;;;;;15.37;12.80;;;1.50;99.90;;;;;;4918252;29;20469;-65
2021/12/03 08:24:35;;;;;;;15.73;12.57;;;1.50;99.90;;;;;;4914047;29;20540;-64
2021/12/03 08:27:05;;;;;;;17.43;13.80;;;1.50;99.90;;;;;;4917267;29;20863;-65
2021/12/03 08:29:33;;;;;;;14.40;12.83;;;1.50;99.90;;;;;;4913443;29;20487;-64
2021/12/03 08:32:02;;;;;;;19.83;14.17;;;1.50;99.90;;;;;;4915794;29;20500;-66
2021/12/03 08:34:31;;;;;;;18.03;14.67;;;1.60;99.90;;;;;;4913732;29;20553;-66
2021/12/03 08:36:59;;;;;;;16.70;14.13;;;1.60;99.90;;;;;;4917440;29;20496;-67
2021/12/03 08:39:29;;;;;;;20.73;15.37;;;1.60;99.90;;;;;;4913315;29;20526;-64
2021/12/03 08:41:57;;;;;;;18.63;15.73;;;1.70;99.90;;;;;;4913453;29;20498;-66
2021/12/03 08:44:27;;;;;;;20.80;15.27;;;1.70;99.90;;;;;;4913492;29;21258;-65
2021/12/03 08:47:01;;;;;;;17.67;15.83;;;1.60;99.90;;;;;;4916351;29;20559;-65
2021/12/03 08:49:31;;;;;;;21.00;16.10;;;1.60;99.90;;;;;;4912913;29;20873;-65
2021/12/03 08:52:31;;;;;;;21.77;16.80;;;1.60;99.90;;;;;;4913803;29;20489;-64
2021/12/03 08:54:58;;;;;;;19.00;16.93;;;1.70;99.90;;;;;;4915715;29;20566;-63
2021/12/03 08:57:30;;;;;;;21.03;17.20;;;1.70;99.90;;;;;;4915350;29;20461;-65
2021/12/03 09:00:01;;;;;;;21.67;17.20;;;1.70;99.90;;;;;;4911593;29;20651;-66
2021/12/03 09:02:31;;;;;;;21.83;18.03;;;1.70;99.90;;;;;;4917444;29;20585;-65
2021/12/03 09:04:59;;;;;;;21.87;17.77;;;1.70;99.90;;;;;;4918575;29;20546;-64
2021/12/03 09:07:28;;;;;;;24.87;18.93;;;1.80;99.90;;;;;;4915835;29;20532;-65
2021/12/03 09:09:56;;;;;;;26.70;19.10;;;1.90;99.90;;;;;;4912738;29;20482;-63
2021/12/03 09:12:24;;;;;;;25.17;19.97;;;1.80;99.90;;;;;;4912615;29;20948;-65
2021/12/03 09:14:54;;;;;;;29.93;19.97;;;1.80;99.90;;;;;;4919202;29;20574;-65
2021/12/03 09:17:34;;;;;;;22.33;18.83;;;1.80;99.90;;;;;;4914462;29;20499;-64
2021/12/03 09:20:08;;;;;;;25.77;21.13;;;1.90;99.90;;;;;;4913074;29;20493;-64
2021/12/03 09:22:40;;;;;;;23.73;20.33;;;2.00;99.90;;;;;;4914651;29;20573;-65
2021/12/03 09:25:13;;;;;;;27.60;20.87;;;2.00;99.90;;;;;;4915158;29;20951;-64
2021/12/03 09:27:41;;;;;;;28.30;21.23;;;1.90;99.90;;;;;;4915328;29;20507;-65
2021/12/03 09:30:14;;;;;;;25.57;20.27;;;1.90;99.90;;;;;;4910743;29;20528;-65
2021/12/03 09:32:49;;;;;;;24.53;20.13;;;1.90;99.90;;;;;;4910818;29;21060;-64
2021/12/03 09:35:17;;;;;;;28.00;22.50;;;1.90;99.90;;;;;;4911160;29;20493;-64
2021/12/03 09:37:46;;;;;;;26.97;21.17;;;1.90;99.90;;;;;;4916191;29;20490;-65
2021/12/03 09:40:20;;;;;;;26.80;21.43;;;1.90;99.90;;;;;;4915744;29;20484;-65
2021/12/03 09:42:48;;;;;;;30.73;22.50;;;1.90;99.90;;;;;;4915119;29;20489;-65
2021/12/03 09:45:17;;;;;;;28.60;21.77;;;2.00;99.90;;;;;;4912152;29;20476;-65
2021/12/03 09:47:49;;;;;;;27.90;22.50;;;2.00;99.90;;;;;;4914997;29;20478;-65
2021/12/03 09:50:18;;;;;;;34.33;24.77;;;2.00;99.90;;;;;;4908382;29;20576;-64
2021/12/03 09:52:59;;;;;;;30.23;23.80;;;2.00;99.90;;;;;;4914489;29;20478;-65
2021/12/03 09:55:28;;;;;;;33.97;25.50;;;2.00;99.90;;;;;;4908352;29;20520;-65
2021/12/03 09:58:04;;;;;;;33.43;23.90;;;2.00;99.90;;;;;;4919060;29;20563;-65
2021/12/03 10:00:36;;;;;;;34.83;26.90;;;2.00;99.90;;;;;;4906838;29;20583;-65
2021/12/03 10:12:15;;;;;;;35.40;26.13;;;2.00;99.90;;;;;;4912456;29;21064;-64
2021/12/03 10:14:57;;;;;;;39.17;26.37;;;2.10;99.90;;;;;;4908105;29;20568;-64
2021/12/03 10:20:34;;;;;;;37.47;27.27;;;2.10;99.90;;;;;;4908139;29;20843;-64
2021/12/03 10:24:02;;;;;;;39.03;26.73;;;2.20;99.90;;;;;;4911187;29;20487;-64
2021/12/03 10:32:24;;;;;;;43.13;29.13;;;2.30;99.90;;;;;;4913299;29;20888;-65
2021/12/03 10:40:57;;;;;;;41.00;27.80;;;2.30;99.90;;;;;;4909757;29;21068;-64
2021/12/03 10:49:05;;;;;;;41.83;28.10;;;2.30;99.90;;;;;;4906973;29;20567;-64
2021/12/03 10:51:49;;;;;;;42.70;27.70;;;2.30;99.90;;;;;;4912330;29;20489;-67
2021/12/03 10:54:47;;;;;;;44.00;29.20;;;2.30;99.90;;;;;;4899783;29;20823;-65
2021/12/03 10:57:40;;;;;;;38.90;26.67;;;2.30;99.90;;;;;;4902753;29;21145;-64
2021/12/03 11:27:00;;;;;;;43.93;27.07;;;2.50;99.90;;;;;;4912918;29;20485;-65
2021/12/03 11:29:46;;;;;;;42.27;25.37;;;2.50;99.90;;;;;;4915104;29;20591;-66
2021/12/03 11:35:33;;;;;;;44.97;27.03;;;2.50;99.90;;;;;;4898392;29;20902;-65
2021/12/03 11:58:46;;;;;;;45.30;26.70;;;2.70;99.90;;;;;;4910391;29;20995;-65
2021/12/03 12:40:34;;;;;;;48.80;24.23;;;3.00;99.90;;;;;;4916551;29;20489;-65
2021/12/03 13:57:17;;;;;;;31.93;17.43;;;3.20;99.90;;;;;;4897582;29;20510;-66
2021/12/03 14:41:57;;;;;;;29.90;17.97;;;2.70;99.90;;;;;;4919430;29;20610;-66
2021/12/03 14:44:29;;;;;;;28.60;17.80;;;2.70;99.90;;;;;;4916426;29;20622;-67
2021/12/03 14:47:32;;;;;;;27.53;16.77;;;2.70;99.90;;;;;;4920004;29;20588;-67
2021/12/03 14:53:15;;;;;;;29.57;16.53;;;2.70;99.90;;;;;;4857893;29;20575;-66
2021/12/03 14:55:47;;;;;;;26.77;16.93;;;2.60;99.90;;;;;;4914088;29;20473;-66
2021/12/03 14:58:19;;;;;;;30.57;16.17;;;2.60;99.90;;;;;;4918269;29;21127;-66
2021/12/03 15:00:55;;;;;;;27.03;16.07;;;2.60;99.90;;;;;;4922482;29;20541;-65
2021/12/03 15:03:33;;;;;;;25.93;15.90;;;2.60;99.90;;;;;;4919348;29;20560;-66
2021/12/03 15:06:18;;;;;;;20.87;13.77;;;2.60;99.90;;;;;;4920932;29;21049;-66
2021/12/03 15:08:53;;;;;;;22.10;14.47;;;2.60;99.90;;;;;;4919680;29;20560;-65
2021/12/03 15:20:30;;;;;;;21.30;13.70;;;2.50;99.90;;;;;;5056681;28;21014;-66
2021/12/03 15:23:20;;;;;;;16.90;13.40;;;2.50;99.90;;;;;;5061773;28;20508;-67
2021/12/03 15:25:56;;;;;;;21.30;13.60;;;2.60;99.90;;;;;;5061630;28;20521;-67
2021/12/03 15:31:44;;;;;;;20.03;13.47;;;2.60;99.90;;;;;;5034399;28;20474;-66
2021/12/03 15:34:22;;;;;;;20.83;13.40;;;2.50;99.90;;;;;;5060617;28;20847;-67
2021/12/03 15:37:02;;;;;;;14.63;11.70;;;2.50;99.90;;;;;;5056286;28;20501;-67
2021/12/03 15:39:44;;;;;;;17.70;12.73;;;2.50;99.90;;;;;;5060966;28;20528;-67
2021/12/03 15:56:21;;;;;;;18.87;14.03;;;2.70;99.90;;;;;;5062506;28;20630;-67
2021/12/03 16:04:22;;;;;;;17.00;13.20;;;2.70;99.90;;;;;;5038495;28;20472;-66
2021/12/03 16:07:02;;;;;;;18.57;13.83;;;2.70;99.90;;;;;;5059322;28;20519;-67
2021/12/03 16:09:49;;;;;;;20.97;13.60;;;2.80;99.90;;;;;;5055520;28;20612;-67
2021/12/03 16:12:25;;;;;;;18.57;13.90;;;2.80;99.90;;;;;;5057420;28;20485;-65
2021/12/03 16:15:09;;;;;;;21.07;14.10;;;2.80;99.90;;;;;;5056264;28;20470;-67
2021/12/03 16:17:49;;;;;;;17.53;13.93;;;2.80;99.90;;;;;;5044313;28;20487;-67
2021/12/03 16:20:48;;;;;;;20.87;15.20;;;2.80;99.90;;;;;;5059644;28;20551;-67
2021/12/03 16:23:26;;;;;;;20.97;16.17;;;2.90;99.90;;;;;;5060248;28;20528;-67
2021/12/03 16:26:13;;;;;;;24.83;18.23;;;2.80;99.90;;;;;;5046100;28;20513;-66
2021/12/03 16:51:28;;;;;;;19.90;15.83;;;3.00;99.90;;;;;;5047781;28;20479;-67
2021/12/03 16:54:05;;;;;;;22.27;17.57;;;3.00;99.90;;;;;;5042279;28;20515;-67
2021/12/03 16:56:33;;;;;;;20.60;17.57;;;2.90;99.90;;;;;;5046619;28;20898;-66
2021/12/03 16:59:02;;;;;;;23.53;19.70;;;2.90;99.90;;;;;;5042022;28;20800;-67
2021/12/03 17:01:36;;;;;;;20.67;16.20;;;3.00;99.90;;;;;;5047461;28;20561;-68
2021/12/03 17:04:13;;;;;;;23.27;16.50;;;3.00;99.90;;;;;;5046420;28;21066;-67
2021/12/03 17:15:47;;;;;;;21.83;17.03;;;3.10;99.90;;;;;;5045295;28;20512;-68
2021/12/03 17:46:30;;;;;;;21.43;17.37;;;3.30;99.90;;;;;;5046975;28;20572;-67
2021/12/03 17:49:03;;;;;;;19.20;17.13;;;3.40;99.90;;;;;;5045035;28;20512;-68
2021/12/03 17:51:48;;;;;;;22.73;18.67;;;3.40;99.90;;;;;;5046140;28;20510;-67
2021/12/03 17:54:30;;;;;;;20.97;18.17;;;3.40;99.90;;;;;;5046366;28;20476;-67
2021/12/03 17:57:06;;;;;;;24.13;19.13;;;3.40;99.90;;;;;;5042424;28;20892;-67
2021/12/03 17:59:39;;;;;;;21.93;19.57;;;3.40;99.90;;;;;;5045281;28;20509;-63
2021/12/03 18:02:15;;;;;;;20.47;18.30;;;3.40;99.90;;;;;;5046040;28;21034;-63
2021/12/03 18:04:58;;;;;;;21.77;19.30;;;3.40;99.90;;;;;;5045264;28;20533;-61
2021/12/03 18:07:36;;;;;;;25.77;20.27;;;3.40;99.90;;;;;;5045705;28;20485;-62
2021/12/03 18:13:19;;;;;;;23.77;21.20;;;3.50;99.90;;;;;;5045660;28;20472;-62
2021/12/03 18:44:03;;;;;;;19.30;17.30;;;3.60;99.90;;;;;;5032185;28;20997;-62
2021/12/03 18:52:26;;;;;;;21.07;18.37;;;3.70;99.90;;;;;;5045208;28;20563;-61
2021/12/03 18:55:01;;;;;;;22.47;18.33;;;3.70;99.90;;;;;;5044866;28;20561;-62
2021/12/03 18:57:32;;;;;;;19.53;17.47;;;3.70;99.90;;;;;;5045360;28;20877;-62
2021/12/03 19:00:04;;;;;;;19.13;17.10;;;3.70;99.90;;;;;;5044475;28;20822;-62
2021/12/03 19:02:33;;;;;;;19.97;17.93;;;3.80;99.90;;;;;;5043944;28;20565;-62
2021/12/03 19:05:09;;;;;;;19.60;17.43;;;3.90;99.90;;;;;;5045245;28;20551;-61
2021/12/03 19:07:43;;;;;;;19.00;16.60;;;3.90;99.90;;;;;;5045605;28;21045;-62
2021/12/03 19:10:16;;;;;;;19.37;17.37;;;3.80;99.90;;;;;;5040522;28;20482;-61
2021/12/03 19:12:45;;;;;;;20.10;18.00;;;3.90;99.90;;;;;;5040216;28;20473;-62
2021/12/03 19:15:14;;;;;;;19.33;17.33;;;3.80;99.90;;;;;;5044741;28;20592;-62
2021/12/03 19:17:45;;;;;;;20.47;16.83;;;3.80;99.90;;;;;;5044317;28;20590;-62